PBD563 LYTV-ULLI
Flight info
| Callsign | PBD563 |
|---|---|
| Flight time | N/A |
| Altitude | 35000 |
| Route | NIK DCT GENLU DCT PARAK DCT PODAN M857 BOKSU DCT LISGO L71 LATLA/K0841F350 L71 GITIL N743 KOLET KOLET1V |
| Aircraft | B738/M-SDE2E3FGHIRWXY/LB1 |
Departure
| Time | N/A |
|---|---|
| Airport | Tivat Airport (LYTV) |
Arrival
| Time | 2026-05-04 20:10 |
|---|---|
| Airport | Pulkovo Airport (ULLI) |
| Time | Latitude | Longitude | Altitude | Speed | Heading |
|---|---|---|---|---|---|
| 2026-05-04 19:36 | 57.05786 | 27.11654 | 34792 ft | 500 kts | 41° |
| 2026-05-04 19:36 | 57.10823 | 27.20453 | 34781 ft | 499 kts | 41° |
| 2026-05-04 19:37 | 57.15776 | 27.29145 | 34777 ft | 500 kts | 41° |
| 2026-05-04 19:37 | 57.20808 | 27.38005 | 34775 ft | 501 kts | 41° |
| 2026-05-04 19:38 | 57.25816 | 27.46851 | 34771 ft | 501 kts | 41° |
| 2026-05-04 19:38 | 57.30823 | 27.55712 | 34778 ft | 501 kts | 41° |
| 2026-05-04 19:39 | 57.35845 | 27.64612 | 34764 ft | 501 kts | 40° |
| 2026-05-04 19:39 | 57.41190 | 27.72849 | 34766 ft | 500 kts | 34° |
| 2026-05-04 19:40 | 57.46807 | 27.80415 | 34770 ft | 499 kts | 32° |
| 2026-05-04 19:40 | 57.52477 | 27.87806 | 34750 ft | 501 kts | 32° |
| 2026-05-04 19:41 | 57.58142 | 27.95264 | 34739 ft | 502 kts | 33° |
| 2026-05-04 19:41 | 57.63839 | 28.02846 | 34752 ft | 501 kts | 33° |
| 2026-05-04 19:42 | 57.69449 | 28.10370 | 34753 ft | 503 kts | 32° |
| 2026-05-04 19:42 | 57.75141 | 28.18014 | 34741 ft | 502 kts | 33° |
| 2026-05-04 19:43 | 57.80725 | 28.25557 | 34747 ft | 502 kts | 32° |
| 2026-05-04 19:43 | 57.86358 | 28.33194 | 34757 ft | 505 kts | 32° |
| 2026-05-04 19:44 | 57.91943 | 28.40804 | 34754 ft | 504 kts | 32° |
| 2026-05-04 19:44 | 57.97630 | 28.48564 | 34730 ft | 503 kts | 33° |
| 2026-05-04 19:45 | 58.02847 | 28.55730 | 34743 ft | 503 kts | 32° |
| 2026-05-04 19:45 | 58.08709 | 28.63819 | 34736 ft | 503 kts | 32° |
| 2026-05-04 19:46 | 58.13944 | 28.71057 | 34714 ft | 504 kts | 33° |
| 2026-05-04 19:46 | 58.19879 | 28.78064 | 34715 ft | 496 kts | 21° |
| 2026-05-04 19:47 | 58.25198 | 28.81799 | 34708 ft | 493 kts | 12° |
| 2026-05-04 19:47 | 58.31736 | 28.85044 | 34712 ft | 488 kts | 8° |
| 2026-05-04 19:48 | 58.38201 | 28.87948 | 34710 ft | 491 kts | 8° |
| 2026-05-04 19:48 | 58.44866 | 28.91043 | 34711 ft | 488 kts | 8° |
| 2026-05-04 19:48 | 58.48141 | 28.92622 | 34606 ft | 485 kts | 8° |
| 2026-05-04 19:49 | 58.51336 | 28.94187 | 34236 ft | 480 kts | 8° |
| 2026-05-04 19:49 | 58.54572 | 28.95786 | 33596 ft | 480 kts | 8° |
| 2026-05-04 19:49 | 58.57802 | 28.97388 | 32843 ft | 483 kts | 8° |
| 2026-05-04 19:49 | 58.61078 | 28.99016 | 31985 ft | 487 kts | 8° |
| 2026-05-04 19:50 | 58.64244 | 29.00590 | 31124 ft | 491 kts | 8° |
| 2026-05-04 19:50 | 58.67489 | 29.02209 | 30172 ft | 495 kts | 9° |
| 2026-05-04 19:50 | 58.70775 | 29.03854 | 29158 ft | 498 kts | 9° |
| 2026-05-04 19:50 | 58.74110 | 29.05530 | 28268 ft | 497 kts | 9° |
| 2026-05-04 19:51 | 58.77220 | 29.07101 | 27637 ft | 492 kts | 9° |
| 2026-05-04 19:51 | 58.80600 | 29.08820 | 26912 ft | 487 kts | 9° |
| 2026-05-04 19:51 | 58.83796 | 29.10448 | 26209 ft | 482 kts | 9° |
| 2026-05-04 19:51 | 58.87044 | 29.12104 | 25482 ft | 478 kts | 9° |
| 2026-05-04 19:52 | 58.89879 | 29.13550 | 24823 ft | 474 kts | 9° |
| 2026-05-04 19:52 | 58.93047 | 29.15167 | 24095 ft | 470 kts | 9° |
| 2026-05-04 19:52 | 58.96144 | 29.16973 | 23344 ft | 469 kts | 14° |
| 2026-05-04 19:52 | 58.99142 | 29.19534 | 22573 ft | 471 kts | 25° |
| 2026-05-04 19:53 | 59.01770 | 29.23243 | 21849 ft | 472 kts | 39° |
| 2026-05-04 19:53 | 59.04042 | 29.27792 | 21106 ft | 469 kts | 45° |
| 2026-05-04 19:53 | 59.06179 | 29.32599 | 20375 ft | 465 kts | 47° |
| 2026-05-04 19:53 | 59.08235 | 29.37455 | 19663 ft | 460 kts | 49° |
| 2026-05-04 19:54 | 59.10228 | 29.42256 | 18940 ft | 456 kts | 49° |
| 2026-05-04 19:54 | 59.12170 | 29.46962 | 18219 ft | 451 kts | 49° |
| 2026-05-04 19:54 | 59.14125 | 29.51695 | 17518 ft | 447 kts | 49° |
| 2026-05-04 19:54 | 59.16066 | 29.56380 | 16795 ft | 443 kts | 49° |
| 2026-05-04 19:55 | 59.17970 | 29.60956 | 16092 ft | 438 kts | 48° |
| 2026-05-04 19:55 | 59.19857 | 29.65479 | 15381 ft | 435 kts | 49° |
| 2026-05-04 19:55 | 59.21771 | 29.70062 | 14679 ft | 429 kts | 49° |
| 2026-05-04 19:55 | 59.23631 | 29.74511 | 13989 ft | 425 kts | 49° |
| 2026-05-04 19:56 | 59.25484 | 29.78946 | 13298 ft | 420 kts | 49° |
| 2026-05-04 19:56 | 59.27309 | 29.83320 | 12584 ft | 416 kts | 49° |
| 2026-05-04 19:56 | 59.29131 | 29.87694 | 11873 ft | 411 kts | 49° |
| 2026-05-04 19:56 | 59.30919 | 29.91996 | 11190 ft | 406 kts | 48° |
| 2026-05-04 19:57 | 59.32668 | 29.96209 | 10569 ft | 399 kts | 48° |
| 2026-05-04 19:57 | 59.34377 | 30.00346 | 10232 ft | 385 kts | 48° |
| 2026-05-04 19:57 | 59.36028 | 30.04358 | 10122 ft | 367 kts | 48° |
| 2026-05-04 19:57 | 59.37591 | 30.08167 | 9949 ft | 351 kts | 48° |
| 2026-05-04 19:58 | 59.39082 | 30.11801 | 9735 ft | 339 kts | 48° |
| 2026-05-04 19:58 | 59.40540 | 30.15350 | 9299 ft | 336 kts | 47° |
| 2026-05-04 19:58 | 59.42002 | 30.18906 | 8864 ft | 333 kts | 47° |
| 2026-05-04 19:58 | 59.43451 | 30.22430 | 8438 ft | 329 kts | 47° |
| 2026-05-04 19:59 | 59.44882 | 30.25918 | 8016 ft | 325 kts | 47° |
| 2026-05-04 19:59 | 59.46269 | 30.29308 | 7631 ft | 320 kts | 47° |
| 2026-05-04 19:59 | 59.47649 | 30.32689 | 7243 ft | 317 kts | 47° |
| 2026-05-04 19:59 | 59.49033 | 30.36068 | 6821 ft | 314 kts | 47° |
| 2026-05-04 20:00 | 59.50400 | 30.39391 | 6418 ft | 310 kts | 47° |
| 2026-05-04 20:00 | 59.51711 | 30.42594 | 6036 ft | 300 kts | 47° |
| 2026-05-04 20:00 | 59.53017 | 30.45692 | 5711 ft | 283 kts | 41° |
| 2026-05-04 20:00 | 59.54407 | 30.48324 | 5254 ft | 275 kts | 35° |
| 2026-05-04 20:01 | 59.55866 | 30.50673 | 4973 ft | 265 kts | 32° |
| 2026-05-04 20:01 | 59.57265 | 30.52844 | 4848 ft | 250 kts | 32° |
| 2026-05-04 20:01 | 59.58599 | 30.54938 | 4734 ft | 237 kts | 32° |
| 2026-05-04 20:01 | 59.59859 | 30.56920 | 4621 ft | 225 kts | 32° |
| 2026-05-04 20:02 | 59.61053 | 30.58783 | 4534 ft | 214 kts | 31° |
| 2026-05-04 20:02 | 59.62170 | 30.60553 | 4436 ft | 205 kts | 32° |
| 2026-05-04 20:02 | 59.63258 | 30.62330 | 4265 ft | 201 kts | 32° |
| 2026-05-04 20:02 | 59.64330 | 30.64092 | 4071 ft | 198 kts | 32° |
| 2026-05-04 20:03 | 59.65386 | 30.65782 | 3922 ft | 194 kts | 27° |
| 2026-05-04 20:03 | 59.66564 | 30.66816 | 3780 ft | 183 kts | 360° |
| 2026-05-04 20:03 | 59.67790 | 30.66630 | 3571 ft | 173 kts | 337° |
| 2026-05-04 20:03 | 59.68888 | 30.65744 | 3246 ft | 172 kts | 327° |
| 2026-05-04 20:04 | 59.69933 | 30.64658 | 2981 ft | 171 kts | 327° |
| 2026-05-04 20:04 | 59.70965 | 30.63604 | 2785 ft | 167 kts | 327° |
| 2026-05-04 20:04 | 59.71983 | 30.62587 | 2677 ft | 158 kts | 328° |
| 2026-05-04 20:04 | 59.72928 | 30.61650 | 2657 ft | 145 kts | 327° |
| 2026-05-04 20:05 | 59.73759 | 30.60815 | 2662 ft | 142 kts | 327° |
| 2026-05-04 20:05 | 59.74661 | 30.59908 | 2614 ft | 142 kts | 327° |
| 2026-05-04 20:05 | 59.75536 | 30.58989 | 2503 ft | 139 kts | 321° |
| 2026-05-04 20:05 | 59.76123 | 30.57583 | 2461 ft | 132 kts | 287° |
| 2026-05-04 20:06 | 59.76326 | 30.55825 | 2472 ft | 134 kts | 284° |
| 2026-05-04 20:06 | 59.76576 | 30.54049 | 2463 ft | 134 kts | 285° |
| 2026-05-04 20:06 | 59.76828 | 30.52243 | 2401 ft | 137 kts | 285° |
| 2026-05-04 20:06 | 59.77081 | 30.50485 | 2284 ft | 128 kts | 286° |
| 2026-05-04 20:07 | 59.77327 | 30.48828 | 2009 ft | 122 kts | 287° |
| 2026-05-04 20:07 | 59.77557 | 30.47277 | 1833 ft | 111 kts | 287° |
| 2026-05-04 20:07 | 59.77775 | 30.45819 | 1730 ft | 112 kts | 287° |
| 2026-05-04 20:07 | 59.78001 | 30.44307 | 1556 ft | 114 kts | 287° |
| 2026-05-04 20:08 | 59.78223 | 30.42807 | 1405 ft | 113 kts | 287° |
| 2026-05-04 20:08 | 59.78450 | 30.41296 | 1248 ft | 117 kts | 287° |
| 2026-05-04 20:08 | 59.78685 | 30.39733 | 1085 ft | 122 kts | 287° |
| 2026-05-04 20:08 | 59.78933 | 30.38123 | 925 ft | 122 kts | 288° |
| 2026-05-04 20:09 | 59.79185 | 30.36486 | 723 ft | 124 kts | 287° |
| 2026-05-04 20:09 | 59.79434 | 30.34866 | 545 ft | 122 kts | 286° |
| 2026-05-04 20:09 | 59.79681 | 30.33230 | 412 ft | 123 kts | 285° |
| 2026-05-04 20:09 | 59.79921 | 30.31594 | 236 ft | 123 kts | 286° |
| 2026-05-04 20:10 | 59.80165 | 30.29969 | 91 ft | 122 kts | 286° |
| 2026-05-04 20:10 | 59.80382 | 30.28491 | 70 ft | 93 kts | 287° |
| 2026-05-04 20:10 | 59.80524 | 30.27529 | 74 ft | 53 kts | 285° |
| 2026-05-04 20:10 | 59.80608 | 30.26977 | 76 ft | 30 kts | 285° |
| 2026-05-04 20:11 | 59.80639 | 30.26764 | 75 ft | 13 kts | 286° |
| 2026-05-04 20:11 | 59.80609 | 30.26636 | 76 ft | 10 kts | 207° |
| 2026-05-04 20:11 | 59.80534 | 30.26591 | 77 ft | 14 kts | 195° |
| 2026-05-04 20:11 | 59.80448 | 30.26578 | 79 ft | 10 kts | 137° |
| 2026-05-04 20:12 | 59.80424 | 30.26709 | 79 ft | 10 kts | 105° |
| 2026-05-04 20:12 | 59.80399 | 30.26760 | 80 ft | 4 kts | 204° |
| 2026-05-04 20:12 | 59.80367 | 30.26735 | 80 ft | 9 kts | 194° |
| 2026-05-04 20:12 | 59.80315 | 30.26706 | 81 ft | 9 kts | 196° |
| 2026-05-04 20:13 | 59.80277 | 30.26683 | 82 ft | 8 kts | 197° |
| 2026-05-04 20:13 | 59.80225 | 30.26651 | 83 ft | 6 kts | 197° |
| 2026-05-04 20:13 | 59.80190 | 30.26631 | 84 ft | 1 kts | 197° |
| 2026-05-04 20:13 | 59.80181 | 30.26601 | 84 ft | 6 kts | 270° |
| 2026-05-04 20:14 | 59.80189 | 30.26529 | 84 ft | 3 kts | 285° |
| 2026-05-04 20:14 | 59.80190 | 30.26520 | 84 ft | 0 kts | 285° |